Time;durP1;ratioP1;P1;durP2;ratioP2;P2;SDS_P1;SDS_P2;PMS_P1;PMS_P2;Temp;Humidity;BMP_temperature;BMP_pressure;BME280_temperature;BME280_humidity;BME280_pressure;Samples;Min_cycle;Max_cycle;Signal;HPM_P1;HPM_P2
2022/04/16 00:00:52;;;;;;;0.60;0.50;;;;;;;10.23;63.74;100312.72;8142669;29;20060;-71
2022/04/16 00:04:53;;;;;;;0.73;0.40;;;;;;;10.02;63.62;100309.84;8148773;29;20071;-73
2022/04/16 00:08:54;;;;;;;0.55;0.50;;;;;;;9.90;64.81;100305.38;8150780;29;20047;-72
2022/04/16 00:12:56;;;;;;;0.53;0.40;;;;;;;9.75;64.86;100303.44;8149998;29;20503;-72
2022/04/16 00:16:58;;;;;;;0.40;0.40;;;;;;;9.72;65.20;100306.00;8130578;29;20055;-71
2022/04/16 00:21:04;;;;;;;1.88;0.43;;;;;;;9.64;65.90;100302.41;8149333;29;20079;-72
2022/04/16 00:25:06;;;;;;;0.40;0.40;;;;;;;9.53;67.18;100309.19;8144508;29;20075;-71
2022/04/16 00:29:08;;;;;;;0.60;0.50;;;;;;;9.39;67.24;100315.03;8144646;29;20048;-72
2022/04/16 00:33:12;;;;;;;0.60;0.50;;;;;;;9.31;67.53;100308.84;8146443;29;20149;-72
2022/04/16 00:37:14;;;;;;;0.47;0.30;;;;;;;9.14;68.28;100307.72;8133838;29;20476;-72
2022/04/16 00:41:15;;;;;;;0.57;0.40;;;;;;;9.00;68.72;100304.06;8149036;29;20159;-71
2022/04/16 00:45:17;;;;;;;0.65;0.50;;;;;;;8.84;70.19;100302.91;8147348;29;20043;-72
2022/04/16 00:49:18;;;;;;;0.40;0.38;;;;;;;8.74;70.03;100306.19;8150783;29;20155;-72
2022/04/16 00:53:21;;;;;;;0.52;0.40;;;;;;;8.64;70.55;100306.88;8148365;29;20048;-72
2022/04/16 00:57:25;;;;;;;1.40;0.50;;;;;;;8.55;71.56;100319.63;8142599;29;20082;-72
2022/04/16 01:01:27;;;;;;;0.38;0.30;;;;;;;8.53;71.50;100316.16;8145145;29;20058;-72
2022/04/16 01:05:29;;;;;;;0.63;0.40;;;;;;;8.49;71.12;100317.81;8148209;29;20075;-71
2022/04/16 01:09:30;;;;;;;0.32;0.32;;;;;;;8.45;70.74;100310.84;8150537;29;20380;-72
2022/04/16 01:13:32;;;;;;;0.52;0.43;;;;;;;8.36;70.59;100314.09;8149869;29;20056;-72
2022/04/16 01:17:34;;;;;;;1.50;0.50;;;;;;;8.37;71.11;100320.16;8144211;29;20054;-71
2022/04/16 01:21:35;;;;;;;0.60;0.60;;;;;;;8.32;71.82;100319.16;8153938;29;20047;-72
2022/04/16 01:25:37;;;;;;;0.50;0.50;;;;;;;8.25;71.95;100317.28;8138311;29;20047;-72
2022/04/16 01:29:40;;;;;;;0.73;0.50;;;;;;;8.13;72.71;100317.94;8159787;29;20040;-71
2022/04/16 01:33:41;;;;;;;0.68;0.47;;;;;;;8.13;72.49;100315.34;8156357;29;20491;-72
2022/04/16 01:37:43;;;;;;;3.45;0.40;;;;;;;8.05;73.43;100320.34;8158604;29;20056;-72
2022/04/16 01:41:46;;;;;;;1.37;0.53;;;;;;;7.99;74.04;100332.28;8138792;29;20061;-72
2022/04/16 01:45:49;;;;;;;0.90;0.50;;;;;;;7.97;73.17;100321.03;8155270;29;20384;-72
2022/04/16 01:49:51;;;;;;;1.30;0.70;;;;;;;7.94;73.08;100326.16;8154760;29;20040;-72
2022/04/16 01:53:53;;;;;;;2.53;0.80;;;;;;;7.94;72.94;100327.03;8154000;29;20065;-72
2022/04/16 01:57:54;;;;;;;2.20;1.27;;;;;;;7.98;72.70;100330.53;8142485;29;20055;-72
2022/04/16 02:01:56;;;;;;;4.20;1.40;;;;;;;7.99;72.68;100321.94;8150525;29;20645;-72
2022/04/16 02:05:58;;;;;;;2.65;1.67;;;;;;;7.99;73.18;100329.69;8167748;29;20103;-72
2022/04/16 02:10:00;;;;;;;1.77;1.00;;;;;;;7.92;73.70;100328.72;8146789;29;20074;-71
2022/04/16 02:14:02;;;;;;;;;;;;;;;7.93;73.49;100327.00;8156227;29;20075;-72
2022/04/16 02:18:04;;;;;;;3.20;1.27;;;;;;;7.83;74.12;100325.91;8154855;29;19934;-72
2022/04/16 02:22:06;;;;;;;1.25;0.90;;;;;;;7.71;74.26;100323.06;8160602;29;20051;-72
2022/04/16 02:26:09;;;;;;;0.95;0.85;;;;;;;7.66;74.30;100329.84;8158836;29;20086;-72
2022/04/16 02:30:13;;;;;;;2.63;1.42;;;;;;;7.61;74.78;100323.69;8147446;29;20140;-72
2022/04/16 02:34:16;;;;;;;1.92;1.20;;;;;;;7.58;74.81;100327.09;8158105;29;20083;-72
2022/04/16 02:38:18;;;;;;;1.48;1.10;;;;;;;7.54;75.34;100327.84;8161406;29;20506;-72
2022/04/16 02:42:20;;;;;;;1.20;1.10;;;;;;;7.44;75.43;100326.78;8158983;29;20076;-71
2022/04/16 02:50:42;;;;;;;2.77;1.00;;;;;;;7.45;75.21;100322.47;8134379;29;20040;-72
2022/04/16 02:54:44;;;;;;;2.60;1.37;;;;;;;7.37;75.17;100326.59;8161222;29;20083;-71
2022/04/16 02:58:45;;;;;;;3.63;1.45;;;;;;;7.42;75.41;100332.75;8160647;29;20076;-72
2022/04/16 03:02:48;;;;;;;2.58;1.30;;;;;;;7.46;75.01;100326.81;8154915;29;20119;-71
2022/04/16 03:06:50;;;;;;;3.10;1.27;;;;;;;7.48;74.96;100333.75;8142235;29;20079;-71
2022/04/16 03:10:52;;;;;;;2.17;1.70;;;;;;;7.48;75.11;100338.91;8158473;29;20056;-71
2022/04/16 03:19:15;;;;;;;1.90;1.20;;;;;;;7.54;74.78;100330.44;8138362;29;20059;-71
2022/04/16 03:23:16;;;;;;;2.33;1.08;;;;;;;7.55;74.40;100332.19;8147585;29;20060;-72
2022/04/16 03:27:18;;;;;;;2.00;1.02;;;;;;;7.53;75.08;100334.72;8158500;29;20071;-72
2022/04/16 03:31:19;;;;;;;10.90;4.50;;;;;;;7.56;75.17;100328.78;8149309;29;20077;-72
2022/04/16 03:35:22;;;;;;;6.65;3.28;;;;;;;7.57;74.97;100335.69;8136049;29;20369;-72
2022/04/16 03:39:24;;;;;;;5.78;3.15;;;;;;;7.56;74.82;100331.38;8152748;29;20476;-72
2022/04/16 03:43:29;;;;;;;3.80;2.10;;;;;;;7.52;74.99;100326.94;8152544;29;20067;-72
2022/04/16 03:47:30;;;;;;;5.28;1.92;;;;;;;7.50;74.90;100334.66;8151766;29;20053;-72
2022/04/16 03:51:32;;;;;;;2.63;1.60;;;;;;;7.49;75.00;100338.09;8147472;29;20040;-72
2022/04/16 03:59:59;;;;;;;2.42;2.03;;;;;;;7.50;75.12;100349.28;8153455;29;20058;-72
2022/04/16 04:04:01;;;;;;;2.72;1.95;;;;;;;7.49;75.30;100347.53;8151116;29;20889;-71
2022/04/16 04:08:04;;;;;;;2.35;1.60;;;;;;;7.49;75.61;100345.84;8151733;29;20126;-72
2022/04/16 04:12:10;;;;;;;1.85;1.48;;;;;;;7.49;75.61;100353.59;8156593;29;20767;-71
2022/04/16 04:16:11;;;;;;;2.05;1.35;;;;;;;7.53;75.37;100357.97;8153683;29;20083;-72
2022/04/16 04:20:13;;;;;;;1.65;1.50;;;;;;;7.56;75.55;100364.97;8151952;29;20044;-72
2022/04/16 04:24:14;;;;;;;2.03;1.70;;;;;;;7.60;75.44;100361.59;8157738;29;20584;-72
2022/04/16 04:28:17;;;;;;;2.70;1.55;;;;;;;7.57;75.01;100364.13;8152618;29;20075;-73
2022/04/16 04:32:18;;;;;;;2.38;1.13;;;;;;;7.54;75.20;100359.75;8141917;29;20142;-72
2022/04/16 04:36:20;;;;;;;1.55;1.30;;;;;;;7.54;75.23;100364.94;8151217;29;20432;-73
2022/04/16 04:40:22;;;;;;;3.10;1.30;;;;;;;7.53;75.62;100364.84;8159532;29;20950;-73
2022/04/16 04:44:23;;;;;;;2.00;1.50;;;;;;;7.47;75.84;100367.31;8158924;29;20062;-72
2022/04/16 04:48:27;;;;;;;1.90;1.48;;;;;;;7.49;75.74;100378.56;8154776;29;20047;-72
2022/04/16 04:52:29;;;;;;;2.75;1.63;;;;;;;7.48;75.46;100376.81;8133223;29;20054;-72
2022/04/16 04:56:31;;;;;;;4.68;1.75;;;;;;;7.55;75.47;100386.47;8141214;29;20159;-72
2022/04/16 05:00:33;;;;;;;2.35;1.55;;;;;;;7.54;75.86;100390.78;8146015;29;20043;-71
2022/04/16 05:04:34;;;;;;;2.87;2.37;;;;;;;7.60;75.84;100390.03;8162756;29;20052;-72
2022/04/16 05:08:35;;;;;;;3.38;1.88;;;;;;;7.65;76.01;100387.53;8158091;29;20058;-72
2022/04/16 05:12:37;;;;;;;13.18;5.40;;;;;;;7.73;75.82;100393.78;8155772;29;20050;-71
2022/04/16 05:16:38;;;;;;;11.45;4.20;;;;;;;7.76;76.03;100399.88;8156150;29;20059;-72
2022/04/16 05:20:40;;;;;;;3.60;2.42;;;;;;;7.84;75.95;100402.63;8146771;29;20115;-71
2022/04/16 05:24:44;;;;;;;6.10;2.00;;;;;;;7.92;75.58;100392.50;8153577;29;20563;-71
2022/04/16 05:28:46;;;;;;;2.67;2.10;;;;;;;8.01;75.55;100393.53;8157083;29;20047;-71
2022/04/16 05:32:49;;;;;;;2.78;2.05;;;;;;;8.14;75.35;100390.41;8155175;29;20151;-72
2022/04/16 05:36:51;;;;;;;6.45;2.65;;;;;;;8.29;75.03;100399.31;8153405;29;20476;-71
2022/04/16 05:40:52;;;;;;;2.40;2.05;;;;;;;8.40;74.70;100403.88;8153571;29;20165;-71
2022/04/16 05:45:00;;;;;;;2.85;2.17;;;;;;;8.57;74.47;100411.13;8151913;29;20051;-71
2022/04/16 05:49:02;;;;;;;3.70;2.33;;;;;;;8.78;73.53;100409.81;8154234;29;20691;-72
2022/04/16 05:53:09;;;;;;;5.27;2.47;;;;;;;9.49;71.90;100401.56;8164200;29;20048;-72
2022/04/16 05:57:11;;;;;;;3.90;2.20;;;;;;;10.50;68.46;100411.72;8145605;29;20054;-72
2022/04/16 06:01:13;;;;;;;3.63;2.05;;;;;;;10.99;66.63;100414.88;8159167;29;20097;-72
2022/04/16 06:05:15;;;;;;;4.05;2.15;;;;;;;11.28;64.55;100409.94;8139671;29;20102;-73
2022/04/16 06:09:16;;;;;;;3.63;1.83;;;;;;;11.55;63.46;100418.84;8140351;29;20074;-73
2022/04/16 06:13:18;;;;;;;2.17;1.88;;;;;;;11.85;62.68;100420.81;8153574;29;20048;-72
2022/04/16 06:17:19;;;;;;;2.37;1.60;;;;;;;12.18;60.84;100413.22;8151754;29;20087;-71
2022/04/16 06:21:21;;;;;;;1.65;1.55;;;;;;;12.44;60.50;100415.97;8147185;29;20074;-71
2022/04/16 06:25:22;;;;;;;4.37;1.70;;;;;;;12.82;59.62;100420.47;8131477;29;20058;-71
2022/04/16 06:29:24;;;;;;;2.95;1.73;;;;;;;13.19;58.22;100416.22;8144087;29;20059;-72
2022/04/16 06:33:25;;;;;;;3.95;1.90;;;;;;;13.51;56.41;100419.75;8149321;29;20043;-72
2022/04/16 06:37:27;;;;;;;2.33;1.80;;;;;;;13.94;56.00;100422.31;8150576;29;20090;-72
2022/04/16 06:41:28;;;;;;;2.47;1.85;;;;;;;14.28;54.58;100430.06;8130389;29;20067;-72
2022/04/16 06:45:30;;;;;;;3.15;2.20;;;;;;;14.43;54.23;100436.16;8148082;29;20043;-72
2022/04/16 06:49:32;;;;;;;4.70;1.90;;;;;;;14.60;54.05;100428.25;8147708;29;20044;-72
2022/04/16 06:53:33;;;;;;;2.67;2.00;;;;;;;14.54;53.58;100425.66;8133413;29;20114;-72
2022/04/16 06:57:34;;;;;;;4.00;2.13;;;;;;;14.72;53.65;100438.69;8155043;29;20058;-71
2022/04/16 07:01:36;;;;;;;4.20;1.85;;;;;;;14.91;52.91;100433.34;8137293;29;20070;-72
2022/04/16 07:05:38;;;;;;;4.43;1.95;;;;;;;15.00;52.49;100434.16;8149448;29;20691;-72
2022/04/16 07:09:40;;;;;;;1.83;1.60;;;;;;;15.15;51.61;100430.59;8136385;29;20069;-72
2022/04/16 07:13:42;;;;;;;3.38;1.90;;;;;;;15.35;50.89;100439.16;8155155;29;20048;-72
2022/04/16 07:17:45;;;;;;;3.57;1.83;;;;;;;15.52;50.27;100435.56;8146503;29;20052;-72
2022/04/16 07:21:46;;;;;;;2.88;2.10;;;;;;;15.60;50.26;100437.25;8150112;29;20131;-72
2022/04/16 07:25:48;;;;;;;5.63;1.60;;;;;;;15.77;49.18;100446.72;8144448;29;20139;-71
2022/04/16 07:29:52;;;;;;;2.57;2.20;;;;;;;15.89;48.99;100442.25;8153712;29;20078;-73
2022/04/16 07:33:53;;;;;;;1.92;1.40;;;;;;;15.89;47.90;100446.63;8155002;29;20436;-73
2022/04/16 07:37:58;;;;;;;2.73;1.30;;;;;;;15.86;47.70;100446.66;8158558;29;20046;-73
2022/04/16 07:42:01;;;;;;;3.58;1.05;;;;;;;15.68;46.52;100451.16;8158797;29;20162;-73
2022/04/16 07:46:02;;;;;;;1.20;1.08;;;;;;;15.79;47.13;100450.19;8154099;29;20622;-72
2022/04/16 07:50:04;;;;;;;3.03;1.20;;;;;;;15.96;47.07;100446.53;8142995;29;20130;-73
2022/04/16 07:54:06;;;;;;;2.78;1.08;;;;;;;16.17;46.60;100444.63;8158906;29;20048;-73
2022/04/16 07:58:07;;;;;;;3.50;1.13;;;;;;;15.97;46.10;100456.13;8150913;29;20075;-74
2022/04/16 08:02:09;;;;;;;1.20;1.10;;;;;;;15.90;46.64;100457.09;8155916;29;20503;-73
2022/04/16 08:06:11;;;;;;;1.23;1.10;;;;;;;15.60;46.88;100458.19;8159161;29;20063;-74
2022/04/16 08:10:12;;;;;;;1.00;1.00;;;;;;;15.90;46.23;100458.84;8158506;29;20052;-73
2022/04/16 08:14:14;;;;;;;1.25;0.95;;;;;;;16.06;45.55;100467.44;8155658;29;20438;-73
2022/04/16 08:18:16;;;;;;;0.93;0.93;;;;;;;16.40;44.58;100445.22;8149641;29;20087;-73
2022/04/16 08:22:18;;;;;;;2.15;1.13;;;;;;;16.65;43.12;100455.41;8149843;29;20730;-72
2022/04/16 08:26:21;;;;;;;2.08;0.80;;;;;;;16.48;43.43;100461.72;8152994;29;20360;-72
2022/04/16 08:30:23;;;;;;;3.83;0.75;;;;;;;15.97;43.60;100470.97;8130289;29;20032;-72
2022/04/16 08:34:25;;;;;;;2.47;0.90;;;;;;;15.59;43.71;100474.78;8133530;29;20062;-74
2022/04/16 08:38:26;;;;;;;2.53;0.70;;;;;;;15.87;43.03;100461.50;8133790;29;20071;-73
2022/04/16 08:42:28;;;;;;;6.63;0.97;;;;;;;16.31;42.19;100461.03;8151266;29;20054;-73
2022/04/16 08:46:32;;;;;;;1.20;0.40;;;;;;;16.04;41.65;100477.91;8147773;29;20142;-73
2022/04/16 08:50:34;;;;;;;0.77;0.45;;;;;;;15.67;41.07;100482.59;8148878;29;20044;-73
2022/04/16 08:54:36;;;;;;;0.53;0.37;;;;;;;15.82;41.24;100473.75;8134104;29;20047;-72
2022/04/16 08:58:38;;;;;;;0.40;0.40;;;;;;;16.14;40.80;100478.69;8148856;29;20058;-72
2022/04/16 09:02:56;;;;;;;0.77;0.30;;;;;;;16.48;40.95;100474.84;8142711;29;20050;-72
2022/04/16 09:07:00;;;;;;;5.60;0.80;;;;;;;16.45;40.58;100479.25;8154320;29;20043;-72
2022/04/16 09:11:11;;;;;;;0.98;0.50;;;;;;;16.17;40.94;100476.06;8133627;29;20068;-72
2022/04/16 09:15:13;;;;;;;5.30;0.95;;;;;;;15.99;41.48;100482.34;8147339;29;20119;-72
2022/04/16 09:19:21;;;;;;;0.80;0.57;;;;;;;16.19;42.13;100493.50;8151687;28;20058;-72
2022/04/16 09:23:22;;;;;;;0.40;0.32;;;;;;;16.73;41.03;100485.97;8146072;29;20058;-72
2022/04/16 09:27:24;;;;;;;0.93;0.40;;;;;;;16.96;40.46;100487.44;8155273;29;20081;-72
2022/04/16 09:31:29;;;;;;;0.40;0.40;;;;;;;17.21;39.96;100483.56;8152910;29;20147;-72
2022/04/16 09:35:32;;;;;;;2.78;0.68;;;;;;;17.38;39.30;100497.31;8139169;29;20078;-72
2022/04/16 09:39:49;;;;;;;1.58;0.50;;;;;;;17.01;38.96;100489.09;8149009;29;20040;-72
2022/04/16 09:43:51;;;;;;;7.10;1.00;;;;;;;16.58;40.08;100491.34;8142002;29;20058;-72
2022/04/16 09:47:52;;;;;;;2.40;0.50;;;;;;;16.48;40.92;100487.94;8135917;29;20047;-72
2022/04/16 09:51:57;;;;;;;3.25;0.40;;;;;;;16.46;39.77;100491.47;8155356;29;20063;-72
2022/04/16 09:55:59;;;;;;;0.50;0.47;;;;;;;16.61;39.53;100489.56;8145233;29;20574;-72
2022/04/16 10:00:03;;;;;;;1.75;0.60;;;;;;;16.85;40.36;100504.16;8154511;29;20596;-72
2022/04/16 10:04:08;;;;;;;1.13;0.60;;;;;;;16.60;40.33;100494.81;8152318;29;20062;-72
2022/04/16 10:08:13;;;;;;;0.65;0.57;;;;;;;16.77;41.28;100495.53;8155441;29;20433;-72
2022/04/16 10:16:32;;;;;;;0.38;0.30;;;;;;;16.47;40.62;100493.22;8136909;29;20055;-72
2022/04/16 10:20:33;;;;;;;0.40;0.40;;;;;;;16.18;40.57;100493.53;8159942;29;20049;-72
2022/04/16 10:24:35;;;;;;;2.40;0.53;;;;;;;15.90;41.24;100491.13;8138755;29;20059;-72
2022/04/16 10:28:50;;;;;;;1.70;0.70;;;;;;;15.63;41.57;100497.47;8154725;29;20230;-72
2022/04/16 10:32:51;;;;;;;0.85;0.50;;;;;;;15.41;42.31;100494.06;8147151;29;20075;-72
2022/04/16 10:36:58;;;;;;;0.80;0.50;;;;;;;15.97;43.02;100489.31;8153985;29;20094;-72
2022/04/16 10:41:02;;;;;;;0.80;0.37;;;;;;;16.48;40.61;100494.94;8129379;29;20044;-72
2022/04/16 10:45:25;;;;;;;7.82;0.82;;;;;;;16.34;40.22;100492.50;8142307;29;20051;-72
2022/04/16 10:49:27;;;;;;;4.03;0.80;;;;;;;16.35;41.24;100496.84;8154599;29;20074;-72
2022/04/16 10:53:32;;;;;;;0.65;0.50;;;;;;;16.18;40.27;100490.91;8148680;29;20051;-73
2022/04/16 10:57:34;;;;;;;2.25;1.30;;;;;;;16.03;40.96;100507.63;8132532;29;20619;-71
2022/04/16 11:01:35;;;;;;;0.50;0.50;;;;;;;16.08;41.71;100497.09;8139621;29;20051;-72
2022/04/16 11:05:38;;;;;;;1.80;0.87;;;;;;;16.21;40.64;100476.00;8151342;29;20047;-73
2022/04/16 11:09:40;;;;;;;1.90;0.90;;;;;;;16.27;40.54;100493.41;8134480;29;20306;-72
2022/04/16 11:13:42;;;;;;;1.42;0.52;;;;;;;16.58;40.44;100491.34;8144222;29;20439;-72
2022/04/16 11:17:44;;;;;;;0.30;0.30;;;;;;;17.02;39.43;100482.94;8136682;29;20076;-72
2022/04/16 11:21:46;;;;;;;0.47;0.40;;;;;;;17.27;40.14;100482.63;8143176;29;20841;-72
2022/04/16 11:34:35;;;;;;;0.60;0.50;;;;;;;17.84;38.96;100480.91;8147852;29;20330;-71
2022/04/16 11:38:58;;;;;;;2.15;0.50;;;;;;;18.10;38.16;100468.16;8141297;29;20056;-71
2022/04/16 11:43:00;;;;;;;0.50;0.30;;;;;;;18.27;37.39;100454.72;8157440;29;20172;-71
2022/04/16 11:47:05;;;;;;;0.30;0.30;;;;;;;18.47;38.32;100456.09;8127740;29;20052;-72
2022/04/16 11:51:08;;;;;;;6.57;1.58;;;;;;;18.67;36.52;100470.66;8144596;29;20048;-71
2022/04/16 11:55:22;;;;;;;;;;;;;;;18.67;36.30;100460.13;8149095;29;20416;-71
2022/04/16 11:59:25;;;;;;;0.80;0.50;;;;;;;18.80;36.69;100473.88;8142279;29;20484;-71
2022/04/16 12:03:39;;;;;;;0.82;0.60;;;;;;;18.97;36.59;100463.00;8128880;28;20078;-71
2022/04/16 12:07:46;;;;;;;1.23;0.40;;;;;;;19.03;34.71;100476.03;8145037;29;20043;-72
2022/04/16 12:11:53;;;;;;;0.50;0.40;;;;;;;19.05;35.71;100465.47;8146091;29;20594;-71
2022/04/16 12:15:55;;;;;;;0.20;0.20;;;;;;;19.16;35.26;100459.06;8143558;29;20070;-71
2022/04/16 12:20:04;;;;;;;0.40;0.40;;;;;;;19.25;36.36;100458.84;8139351;29;20131;-71
2022/04/16 12:24:06;;;;;;;0.40;0.40;;;;;;;19.25;35.27;100469.38;8116455;29;20062;-71
2022/04/16 12:28:12;;;;;;;0.30;0.30;;;;;;;19.21;36.11;100457.19;8149685;29;20052;-71
2022/04/16 12:32:24;;;;;;;0.35;0.35;;;;;;;19.33;35.72;100463.94;8146912;29;20090;-71
2022/04/16 12:36:26;;;;;;;1.00;0.80;;;;;;;19.22;34.54;100460.69;8147629;29;21752;-72
2022/04/16 12:40:29;;;;;;;3.15;0.80;;;;;;;19.18;34.58;100451.13;8131264;29;20744;-71
2022/04/16 12:44:30;;;;;;;0.50;0.40;;;;;;;19.07;34.04;100454.00;8125319;29;20140;-72
2022/04/16 12:48:32;;;;;;;0.30;0.30;;;;;;;19.06;34.70;100443.50;8126659;29;20835;-72
2022/04/16 12:52:34;;;;;;;0.20;0.20;;;;;;;19.07;34.67;100454.00;8130060;29;20049;-71
2022/04/16 12:56:36;;;;;;;0.38;0.30;;;;;;;19.28;34.91;100461.41;8131710;29;20048;-71
2022/04/16 13:00:37;;;;;;;0.30;0.30;;;;;;;19.37;35.25;100443.66;8130315;29;20197;-71
2022/04/16 13:04:39;;;;;;;0.30;0.30;;;;;;;19.37;33.63;100438.38;8146300;29;20051;-72
2022/04/16 13:08:40;;;;;;;0.28;0.20;;;;;;;19.26;34.27;100442.16;8137885;29;20409;-72
2022/04/16 13:12:42;;;;;;;0.40;0.40;;;;;;;19.26;34.86;100442.16;8133577;29;20315;-71
2022/04/16 13:16:45;;;;;;;0.60;0.40;;;;;;;19.22;33.86;100437.00;8139048;29;20079;-72
2022/04/16 13:20:47;;;;;;;0.40;0.40;;;;;;;19.31;33.89;100431.50;8150016;29;20047;-72
2022/04/16 13:24:48;;;;;;;0.20;0.20;;;;;;;19.24;33.50;100436.06;8156023;29;20444;-71
2022/04/16 13:28:50;;;;;;;0.40;0.30;;;;;;;19.15;33.18;100432.75;8148283;29;20044;-71
2022/04/16 13:32:52;;;;;;;0.47;0.40;;;;;;;19.12;33.66;100423.16;8151073;29;20425;-71
2022/04/16 13:36:53;;;;;;;0.28;0.25;;;;;;;19.08;33.23;100424.16;8152980;29;20067;-71
2022/04/16 13:45:15;;;;;;;0.60;0.50;;;;;;;19.05;33.57;100429.47;8133798;29;20845;-71
2022/04/16 13:49:18;;;;;;;3.15;0.50;;;;;;;19.11;32.99;100423.19;8155415;29;20082;-71
2022/04/16 13:53:21;;;;;;;2.05;0.47;;;;;;;19.15;33.25;100411.69;8138846;29;20146;-71
2022/04/16 13:57:22;;;;;;;1.27;0.60;;;;;;;19.21;33.49;100407.16;8151119;29;20044;-72
2022/04/16 14:01:23;;;;;;;0.70;0.47;;;;;;;19.09;32.07;100415.34;8147125;29;20369;-72
2022/04/16 14:05:43;;;;;;;0.40;0.40;;;;;;;19.15;32.66;100409.94;8160421;29;20332;-72
2022/04/16 14:09:45;;;;;;;0.40;0.40;;;;;;;19.08;32.17;100410.13;8152704;29;20086;-72
2022/04/16 14:13:46;;;;;;;0.75;0.60;;;;;;;19.05;33.17;100411.06;8149092;29;20095;-72
2022/04/16 14:17:50;;;;;;;2.58;0.80;;;;;;;18.93;32.70;100409.56;8142452;29;20524;-72
2022/04/16 14:21:54;;;;;;;3.45;0.77;;;;;;;19.01;33.36;100419.91;8157757;29;20401;-72
2022/04/16 14:25:55;;;;;;;0.93;0.60;;;;;;;18.91;32.53;100416.63;8152344;29;20153;-72
2022/04/16 14:29:57;;;;;;;0.47;0.47;;;;;;;18.83;31.34;100404.50;8155103;29;20078;-71
2022/04/16 14:33:58;;;;;;;3.03;0.60;;;;;;;18.79;31.25;100408.13;8151255;29;20322;-72
2022/04/16 14:38:00;;;;;;;2.35;0.75;;;;;;;18.74;31.18;100410.00;8157470;29;20054;-69
2022/04/16 14:42:02;;;;;;;0.87;0.87;;;;;;;18.81;31.73;100404.56;8162361;29;20829;-73
2022/04/16 14:46:04;;;;;;;0.73;0.40;;;;;;;18.80;31.57;100401.94;8154921;29;21072;-74
2022/04/16 14:50:06;;;;;;;0.52;0.45;;;;;;;18.69;31.86;100404.84;8158229;29;20136;-73
2022/04/16 14:54:08;;;;;;;0.40;0.30;;;;;;;18.70;31.66;100398.69;8156612;29;20425;-73
2022/04/16 14:58:09;;;;;;;1.67;0.57;;;;;;;18.69;31.07;100410.09;8136852;29;20035;-72
2022/04/16 15:02:11;;;;;;;2.22;0.50;;;;;;;18.76;31.21;100408.19;8153015;29;20085;-74
2022/04/16 15:06:12;;;;;;;0.95;0.50;;;;;;;18.80;30.11;100400.19;8161160;29;20130;-73
2022/04/16 15:10:14;;;;;;;0.30;0.30;;;;;;;18.62;30.65;100403.19;8157056;29;20054;-72
2022/04/16 15:14:15;;;;;;;0.50;0.50;;;;;;;18.62;30.95;100392.66;8149827;29;20619;-72
2022/04/16 15:18:17;;;;;;;1.90;0.40;;;;;;;18.62;30.74;100397.91;8145194;29;20309;-73
2022/04/16 15:22:18;;;;;;;2.30;0.40;;;;;;;18.67;31.03;100406.59;8126898;29;20071;-73
2022/04/16 15:26:20;;;;;;;2.05;0.40;;;;;;;18.75;31.25;100396.81;8145942;29;20102;-73
2022/04/16 15:30:22;;;;;;;0.70;0.40;;;;;;;18.81;30.27;100401.91;8145838;29;20107;-72
2022/04/16 15:34:23;;;;;;;0.30;0.30;;;;;;;18.81;30.54;100391.38;8151300;29;20292;-73
2022/04/16 15:38:27;;;;;;;0.40;0.40;;;;;;;18.97;30.34;100392.78;8153616;29;20054;-72
2022/04/16 15:42:28;;;;;;;0.50;0.45;;;;;;;18.90;29.99;100387.72;8142883;29;20050;-72
2022/04/16 15:46:31;;;;;;;4.87;1.60;;;;;;;18.92;29.85;100392.03;8134273;29;20101;-72
2022/04/16 15:50:32;;;;;;;2.55;0.57;;;;;;;18.95;29.74;100406.88;8128915;29;20050;-71
2022/04/16 15:54:34;;;;;;;5.23;1.70;;;;;;;19.00;30.07;100399.75;8150028;29;20094;-71
2022/04/16 15:58:35;;;;;;;3.83;1.07;;;;;;;19.00;29.65;100395.34;8150303;29;20048;-72
2022/04/16 16:02:37;;;;;;;2.97;0.90;;;;;;;19.00;29.47;100395.34;8146716;29;20308;-72
2022/04/16 16:06:38;;;;;;;1.33;0.70;;;;;;;19.17;28.88;100400.22;8152637;29;20500;-72
2022/04/16 16:10:40;;;;;;;0.80;0.57;;;;;;;19.43;29.20;100398.75;8151511;29;20043;-72
2022/04/16 16:14:42;;;;;;;1.95;0.50;;;;;;;19.66;28.94;100396.44;8150233;29;20302;-71
2022/04/16 16:18:44;;;;;;;2.03;0.30;;;;;;;19.93;28.27;100379.03;8133972;29;20469;-70
2022/04/16 16:22:45;;;;;;;1.65;0.50;;;;;;;19.99;27.78;100388.56;8148972;29;20074;-71
2022/04/16 16:26:47;;;;;;;0.95;0.50;;;;;;;20.08;27.32;100377.75;8144350;29;20043;-70
2022/04/16 16:30:49;;;;;;;0.70;0.30;;;;;;;19.89;26.49;100394.06;8143840;29;20086;-71
2022/04/16 16:34:52;;;;;;;0.40;0.40;;;;;;;19.74;26.90;100385.69;8144243;29;20166;-71
2022/04/16 16:38:54;;;;;;;0.60;0.43;;;;;;;19.26;27.84;100386.00;8122365;29;20134;-70
2022/04/16 16:42:56;;;;;;;1.20;0.60;;;;;;;18.63;29.00;100395.28;8125709;29;20054;-71
2022/04/16 16:46:57;;;;;;;0.57;0.32;;;;;;;18.07;28.71;100383.25;8141761;29;20309;-71
2022/04/16 16:50:58;;;;;;;2.17;0.60;;;;;;;17.48;29.66;100380.78;8135545;29;20075;-71
2022/04/16 16:55:00;;;;;;;0.67;0.30;;;;;;;16.96;30.22;100378.09;8154332;29;20083;-71
2022/04/16 16:59:08;;;;;;;1.67;0.50;;;;;;;16.71;30.99;100374.09;8153106;29;20134;-71
2022/04/16 17:07:31;;;;;;;1.23;0.57;;;;;;;16.55;30.72;100376.88;8151267;29;20316;-70
2022/04/16 17:11:32;;;;;;;1.48;0.40;;;;;;;16.10;30.65;100391.38;8130748;29;20039;-70
2022/04/16 17:19:53;;;;;;;0.82;0.55;;;;;;;15.64;31.95;100396.22;8145462;29;20524;-70
2022/04/16 17:23:55;;;;;;;1.40;0.70;;;;;;;15.41;31.56;100384.16;8137327;29;20071;-71
2022/04/16 17:27:56;;;;;;;0.30;0.30;;;;;;;15.18;32.76;100387.84;8148782;29;20066;-72
2022/04/16 17:31:58;;;;;;;3.97;0.38;;;;;;;15.03;31.99;100386.19;8147475;29;20456;-72
2022/04/16 17:36:00;;;;;;;;;;;;;;;14.90;32.57;100390.66;8150104;29;20063;-72
2022/04/16 17:40:03;;;;;;;0.30;0.30;;;;;;;14.77;31.70;100383.75;8151239;29;19966;-71
2022/04/16 17:44:04;;;;;;;2.38;0.40;;;;;;;14.71;32.02;100373.28;8145905;29;20511;-72
2022/04/16 17:48:06;;;;;;;0.60;0.60;;;;;;;14.60;32.18;100388.19;8141911;29;20361;-71
2022/04/16 17:52:08;;;;;;;3.05;1.00;;;;;;;14.49;31.87;100394.31;8152316;29;20630;-71
2022/04/16 17:56:09;;;;;;;4.30;1.10;;;;;;;14.40;32.04;100394.34;8154576;29;20449;-72
2022/04/16 18:00:13;;;;;;;2.60;0.47;;;;;;;14.28;31.29;100401.34;8159813;29;20439;-73
2022/04/16 18:04:15;;;;;;;0.80;0.50;;;;;;;14.16;31.29;100416.16;8137056;29;20079;-72
2022/04/16 18:08:23;;;;;;;0.90;0.68;;;;;;;14.14;31.89;100424.88;8160783;29;20050;-71
2022/04/16 18:12:24;;;;;;;0.75;0.40;;;;;;;14.05;31.92;100431.00;8153394;29;20595;-72
2022/04/16 18:16:26;;;;;;;0.80;0.30;;;;;;;13.90;31.53;100437.13;8156613;29;20055;-72
2022/04/16 18:20:30;;;;;;;0.23;0.20;;;;;;;13.82;31.91;100423.22;8160812;29;20083;-72
2022/04/16 18:24:33;;;;;;;0.50;0.30;;;;;;;13.72;31.78;100429.31;8142313;29;20317;-72
2022/04/16 18:28:35;;;;;;;0.40;0.22;;;;;;;13.63;32.37;100434.50;8158524;29;20047;-72
2022/04/16 18:32:38;;;;;;;1.13;0.22;;;;;;;13.56;32.58;100435.38;8135194;29;20048;-71
2022/04/16 18:36:42;;;;;;;0.30;0.30;;;;;;;13.50;32.75;100441.47;8155421;29;20618;-71
2022/04/16 18:40:44;;;;;;;0.60;0.38;;;;;;;13.42;33.29;100437.13;8155072;29;20830;-71
2022/04/16 18:44:46;;;;;;;0.50;0.40;;;;;;;13.28;33.73;100451.03;8150120;29;20056;-72
2022/04/16 18:48:47;;;;;;;1.00;0.40;;;;;;;13.13;34.63;100461.41;8148087;29;20166;-71
2022/04/16 18:52:48;;;;;;;0.22;0.22;;;;;;;13.00;34.52;100460.50;8151327;29;20818;-72
2022/04/16 18:56:51;;;;;;;1.20;0.40;;;;;;;12.94;35.56;100462.22;8130017;29;20053;-72
2022/04/16 19:09:33;;;;;;;0.30;0.30;;;;;;;12.57;35.42;100480.31;8142894;29;20067;-71
2022/04/16 19:13:35;;;;;;;0.50;0.30;;;;;;;12.51;34.66;100477.66;8149857;29;20086;-71
2022/04/16 19:17:36;;;;;;;0.75;0.30;;;;;;;12.50;35.96;100486.34;8144647;29;20047;-71
2022/04/16 19:21:38;;;;;;;1.90;0.30;;;;;;;12.43;35.62;100488.91;8133166;29;20087;-72
2022/04/16 19:25:39;;;;;;;0.85;0.32;;;;;;;12.34;36.51;100485.38;8128880;29;20602;-71
2022/04/16 19:29:44;;;;;;;0.25;0.25;;;;;;;12.25;38.03;100497.47;8148737;29;20126;-72
2022/04/16 19:33:45;;;;;;;1.52;0.52;;;;;;;12.10;36.78;100496.50;8118360;29;20126;-71
2022/04/16 19:37:47;;;;;;;0.50;0.30;;;;;;;11.96;36.81;100497.25;8147479;29;20428;-71
2022/04/16 19:41:48;;;;;;;0.47;0.40;;;;;;;11.89;37.26;100505.91;8144796;29;20044;-72